Time;durP1;ratioP1;P1;durP2;ratioP2;P2;SDS_P1;SDS_P2;PMS_P1;PMS_P2;Temp;Humidity;BMP_temperature;BMP_pressure;BME280_temperature;BME280_humidity;BME280_pressure;Samples;Min_cycle;Max_cycle;Signal;HPM_P1;HPM_P2
2022/09/07 00:00:23;;;;;;;4.63;4.28;;;;;;;-141.48;100.00;69781.59;5247896;22;20263;-79
2022/09/07 00:02:54;;;;;;;6.80;6.43;;;;;;;-141.48;100.00;69781.59;5213044;28;20474;-79
2022/09/07 00:05:25;;;;;;;8.05;7.28;;;;;;;-141.48;100.00;69781.59;5230392;28;20036;-80
2022/09/07 00:07:56;;;;;;;9.40;8.55;;;;;;;-141.48;100.00;69781.59;5214770;28;20033;-80
2022/09/07 00:10:27;;;;;;;10.18;9.35;;;;;;;-141.48;100.00;69781.59;5237720;28;20393;-80
2022/09/07 00:12:58;;;;;;;11.07;10.18;;;;;;;-141.48;100.00;69781.59;5217384;28;20082;-83
2022/09/07 00:15:28;;;;;;;11.82;11.07;;;;;;;-141.48;100.00;69781.59;5232686;28;20017;-81
2022/09/07 00:17:59;;;;;;;9.82;9.02;;;;;;;-141.48;100.00;69781.59;5233057;28;20029;-83
2022/09/07 00:20:29;;;;;;;9.60;8.52;;;;;;;-141.48;100.00;69781.59;5232145;28;20017;-81
2022/09/07 00:23:00;;;;;;;9.88;8.68;;;;;;;-141.48;100.00;69781.59;5232528;28;20044;-81
2022/09/07 00:25:30;;;;;;;7.90;7.40;;;;;;;-141.48;100.00;69781.59;5214033;28;20036;-80
2022/09/07 00:28:01;;;;;;;7.13;6.72;;;;;;;-141.48;100.00;69781.59;5214631;28;20025;-82
2022/09/07 00:30:32;;;;;;;6.78;6.35;;;;;;;-141.48;100.00;69781.59;5232009;28;20141;-83
2022/09/07 00:33:02;;;;;;;6.75;6.35;;;;;;;-141.48;100.00;69781.59;5232657;28;20033;-81
2022/09/07 00:35:38;;;;;;;7.00;6.35;;;;;;;-141.48;100.00;69781.59;5230058;28;20032;-82
2022/09/07 00:38:09;;;;;;;7.97;6.20;;;;;;;-141.48;100.00;69781.59;5212633;28;20024;-82
2022/09/07 00:40:39;;;;;;;5.65;5.28;;;;;;;-141.48;100.00;69781.59;5228515;28;20086;-82
2022/09/07 00:43:36;;;;;;;6.82;4.93;;;;;;;-141.48;100.00;69781.59;5228731;28;20059;-82
2022/09/07 00:46:13;;;;;;;5.80;5.28;;;;;;;-141.48;100.00;69781.59;5229538;28;20100;-82
2022/09/07 00:48:55;;;;;;;7.55;6.85;;;;;;;-141.48;100.00;69781.59;5228900;28;20048;-81
2022/09/07 00:51:35;;;;;;;5.60;5.20;;;;;;;-141.48;100.00;69781.59;5228768;28;20112;-82
2022/09/07 00:54:10;;;;;;;6.13;5.72;;;;;;;-141.48;100.00;69781.59;5228285;28;20429;-82
2022/09/07 00:56:43;;;;;;;5.72;5.32;;;;;;;-141.48;100.00;69781.59;5228260;28;20103;-81
2022/09/07 00:59:17;;;;;;;5.88;4.60;;;;;;;-141.48;100.00;69781.59;5211094;28;20068;-82
2022/09/07 01:01:48;;;;;;;5.22;4.82;;;;;;;-141.48;100.00;69781.59;5228540;28;20024;-82
2022/09/07 01:04:20;;;;;;;5.93;5.05;;;;;;;-141.48;100.00;69781.59;5228451;28;20605;-82
2022/09/07 01:06:53;;;;;;;5.18;4.43;;;;;;;-141.48;100.00;69781.59;5210939;28;20089;-82
2022/09/07 01:09:26;;;;;;;5.57;5.05;;;;;;;-141.48;100.00;69781.59;5228855;28;20106;-82
2022/09/07 01:11:58;;;;;;;5.55;5.15;;;;;;;-141.48;100.00;69781.59;5229119;28;20479;-82
2022/09/07 01:14:33;;;;;;;4.10;3.80;;;;;;;-141.48;100.00;69781.59;5228759;28;20100;-82
2022/09/07 01:17:17;;;;;;;4.47;4.18;;;;;;;-141.48;100.00;69781.59;5229152;28;20513;-82
2022/09/07 01:20:02;;;;;;;4.45;4.13;;;;;;;-141.48;100.00;69781.59;5231518;28;20035;-82
2022/09/07 01:22:36;;;;;;;5.18;3.28;;;;;;;-141.48;100.00;69781.59;5233396;28;20113;-81
2022/09/07 01:25:11;;;;;;;4.22;3.92;;;;;;;-141.48;100.00;69781.59;5232530;28;20041;-82
2022/09/07 01:27:50;;;;;;;5.28;4.75;;;;;;;-141.48;100.00;69781.59;5234175;28;20032;-82
2022/09/07 01:30:22;;;;;;;4.78;4.40;;;;;;;-141.48;100.00;69781.59;5233376;28;20040;-82
2022/09/07 01:33:14;;;;;;;4.75;4.45;;;;;;;-141.48;100.00;69781.59;5232989;28;20024;-82
2022/09/07 01:36:09;;;;;;;5.75;5.40;;;;;;;-141.48;100.00;69781.59;5232673;28;20034;-81
2022/09/07 01:38:52;;;;;;;6.55;5.95;;;;;;;-141.48;100.00;69781.59;5233390;28;20108;-82
2022/09/07 01:41:25;;;;;;;5.95;5.55;;;;;;;-141.48;100.00;69781.59;5232205;28;20033;-81
2022/09/07 01:44:08;;;;;;;5.25;4.85;;;;;;;-141.48;100.00;69781.59;5231544;28;20036;-82
2022/09/07 01:46:47;;;;;;;5.28;4.80;;;;;;;-141.48;100.00;69781.59;5232783;28;20029;-81
2022/09/07 01:49:22;;;;;;;5.23;4.77;;;;;;;-141.48;100.00;69781.59;5214700;28;20028;-81
2022/09/07 01:52:01;;;;;;;5.15;4.72;;;;;;;-141.48;100.00;69781.59;5232829;28;20426;-82
2022/09/07 01:54:36;;;;;;;5.05;4.75;;;;;;;-141.48;100.00;69781.59;5231504;28;20366;-82
2022/09/07 01:57:17;;;;;;;12.18;5.35;;;;;;;-141.48;100.00;69781.59;5232648;28;20017;-82
2022/09/07 01:59:57;;;;;;;4.18;3.92;;;;;;;-141.48;100.00;69781.59;5214861;28;20489;-82
2022/09/07 02:02:32;;;;;;;4.85;4.53;;;;;;;-141.48;100.00;69781.59;5234167;28;20025;-83
2022/09/07 02:05:12;;;;;;;6.03;4.85;;;;;;;-141.48;100.00;69781.59;5240525;28;20032;-81
2022/09/07 02:07:52;;;;;;;4.00;3.70;;;;;;;-141.48;100.00;69781.59;5222905;28;20021;-80
2022/09/07 02:10:32;;;;;;;5.05;4.65;;;;;;;-141.48;100.00;69781.59;5219097;28;20032;-82
2022/09/07 02:13:07;;;;;;;5.25;4.75;;;;;;;-141.48;100.00;69781.59;5231542;28;20032;-82
2022/09/07 02:15:45;;;;;;;6.03;5.38;;;;;;;-141.48;100.00;69781.59;5230892;28;20025;-82
2022/09/07 02:18:18;;;;;;;5.40;5.00;;;;;;;-141.48;100.00;69781.59;5232664;28;20028;-82
2022/09/07 02:20:53;;;;;;;8.82;5.05;;;;;;;-141.48;100.00;69781.59;5231378;28;20021;-82
2022/09/07 02:23:31;;;;;;;5.57;5.18;;;;;;;-141.48;100.00;69781.59;5233435;28;20029;-80
2022/09/07 02:26:09;;;;;;;5.50;5.13;;;;;;;-141.48;100.00;69781.59;5215543;28;20521;-80
2022/09/07 02:28:40;;;;;;;5.10;4.47;;;;;;;-141.48;100.00;69781.59;5239573;28;20025;-82
2022/09/07 02:31:10;;;;;;;7.03;6.10;;;;;;;-141.48;100.00;69781.59;5230471;28;20348;-82
2022/09/07 02:33:41;;;;;;;7.57;5.78;;;;;;;-141.48;100.00;69781.59;5231178;28;20039;-82
2022/09/07 02:36:17;;;;;;;17.63;5.50;;;;;;;-141.48;100.00;69781.59;5232140;28;20092;-82
2022/09/07 02:38:47;;;;;;;5.88;5.47;;;;;;;-141.48;100.00;69781.59;5231484;28;20407;-81
2022/09/07 02:41:39;;;;;;;6.20;5.55;;;;;;;-141.48;100.00;69781.59;5230293;28;20062;-82
2022/09/07 02:44:20;;;;;;;6.57;5.97;;;;;;;-141.48;100.00;69781.59;5212274;28;20020;-82
2022/09/07 02:47:02;;;;;;;5.80;5.40;;;;;;;-141.48;100.00;69781.59;5232346;28;20036;-83
2022/09/07 02:50:06;;;;;;;6.63;6.13;;;;;;;-141.48;100.00;69781.59;5232510;28;20029;-83
2022/09/07 02:52:42;;;;;;;6.07;5.70;;;;;;;-141.48;100.00;69781.59;5231617;28;20025;-82
2022/09/07 02:55:19;;;;;;;6.22;5.72;;;;;;;-141.48;100.00;69781.59;5227977;28;20075;-82
2022/09/07 02:58:28;;;;;;;6.53;5.63;;;;;;;-141.48;100.00;69781.59;5231931;28;20021;-83
2022/09/07 03:01:45;;;;;;;5.30;4.88;;;;;;;-141.48;100.00;69781.59;5186807;28;20072;-82
2022/09/07 03:04:42;;;;;;;7.00;6.50;;;;;;;-141.48;100.00;69781.59;5212442;28;20017;-82
2022/09/07 03:10:40;;;;;;;7.07;6.13;;;;;;;-141.48;100.00;69781.59;5231328;28;20041;-82
2022/09/07 03:13:26;;;;;;;5.35;5.05;;;;;;;-141.48;100.00;69781.59;5230748;28;20040;-83
2022/09/07 03:15:56;;;;;;;5.95;5.45;;;;;;;-141.48;100.00;69781.59;5212540;28;20070;-83
2022/09/07 03:18:27;;;;;;;6.88;6.25;;;;;;;-141.48;100.00;69781.59;5231313;28;20386;-83
2022/09/07 03:20:58;;;;;;;5.72;5.28;;;;;;;-141.48;100.00;69781.59;5230616;28;20033;-83
2022/09/07 03:23:28;;;;;;;6.38;5.97;;;;;;;-141.48;100.00;69781.59;5211811;28;20017;-83
2022/09/07 03:25:58;;;;;;;4.70;4.40;;;;;;;-141.48;100.00;69781.59;5231258;28;20440;-83
2022/09/07 03:28:29;;;;;;;6.70;4.97;;;;;;;-141.48;100.00;69781.59;5232072;28;20028;-82
2022/09/07 03:31:01;;;;;;;5.10;4.80;;;;;;;-141.48;100.00;69781.59;5231912;28;20056;-82
2022/09/07 03:33:32;;;;;;;6.15;5.65;;;;;;;-141.48;100.00;69781.59;5212340;28;20047;-82
2022/09/07 03:36:03;;;;;;;5.00;4.60;;;;;;;-141.48;100.00;69781.59;5231078;28;20099;-81
2022/09/07 03:38:33;;;;;;;5.35;5.05;;;;;;;-141.48;100.00;69781.59;5212776;28;20087;-82
2022/09/07 03:41:05;;;;;;;4.45;4.05;;;;;;;-141.48;100.00;69781.59;5231155;28;20027;-80
2022/09/07 03:43:36;;;;;;;7.47;6.13;;;;;;;-141.48;100.00;69781.59;5229720;28;20060;-81
2022/09/07 03:46:09;;;;;;;4.60;4.30;;;;;;;-141.48;100.00;69781.59;5213547;28;20032;-81
2022/09/07 03:48:39;;;;;;;5.65;5.35;;;;;;;-141.48;100.00;69781.59;5230919;28;20056;-82
2022/09/07 03:51:11;;;;;;;10.75;4.85;;;;;;;-141.48;100.00;69781.59;5232049;28;20032;-81
2022/09/07 03:53:44;;;;;;;5.43;4.60;;;;;;;-141.48;100.00;69781.59;5230343;28;20473;-82
2022/09/07 03:56:17;;;;;;;4.78;4.47;;;;;;;-141.48;100.00;69781.59;5231361;28;20414;-83
2022/09/07 03:58:48;;;;;;;6.13;4.68;;;;;;;-141.48;100.00;69781.59;5231900;28;20044;-82
2022/09/07 04:01:22;;;;;;;5.25;4.82;;;;;;;-141.48;100.00;69781.59;5230015;28;20509;-83
2022/09/07 04:03:56;;;;;;;5.50;5.13;;;;;;;-141.48;100.00;69781.59;5212775;28;20155;-83
2022/09/07 04:06:27;;;;;;;6.38;5.95;;;;;;;-141.48;100.00;69781.59;5232972;28;20487;-82
2022/09/07 04:09:16;;;;;;;5.18;4.78;;;;;;;-141.48;100.00;69781.59;5232131;28;20048;-82
2022/09/07 04:11:47;;;;;;;6.55;5.93;;;;;;;-141.48;100.00;69781.59;5230581;28;20039;-83
2022/09/07 04:14:17;;;;;;;5.80;5.18;;;;;;;-141.48;100.00;69781.59;5229339;28;20479;-82
2022/09/07 04:16:47;;;;;;;5.97;5.47;;;;;;;-141.48;100.00;69781.59;5230095;28;20028;-81
2022/09/07 04:19:18;;;;;;;18.17;5.63;;;;;;;-141.48;100.00;69781.59;5229224;28;20021;-80
2022/09/07 04:21:48;;;;;;;6.10;5.55;;;;;;;-141.48;100.00;69781.59;5228608;28;20020;-79
2022/09/07 04:24:19;;;;;;;6.13;5.63;;;;;;;-141.48;100.00;69781.59;5227111;28;20033;-81
2022/09/07 04:26:49;;;;;;;6.78;5.55;;;;;;;-141.48;100.00;69781.59;5215641;28;20025;-82
2022/09/07 04:29:19;;;;;;;8.13;7.43;;;;;;;-141.48;100.00;69781.59;5227924;28;20029;-82
2022/09/07 04:31:50;;;;;;;6.60;6.05;;;;;;;-141.48;100.00;69781.59;5226545;28;20021;-81
2022/09/07 04:34:20;;;;;;;5.93;5.40;;;;;;;-141.48;100.00;69781.59;5226281;28;20273;-81
2022/09/07 04:36:50;;;;;;;7.88;5.57;;;;;;;-141.48;100.00;69781.59;5226875;28;20032;-81
2022/09/07 04:39:21;;;;;;;6.85;6.45;;;;;;;-141.48;100.00;69781.59;5228278;28;20017;-81
2022/09/07 04:41:52;;;;;;;7.80;6.90;;;;;;;-141.48;100.00;69781.59;5234023;28;20041;-80
2022/09/07 04:44:22;;;;;;;6.85;6.43;;;;;;;-141.48;100.00;69781.59;5227779;28;20036;-81
2022/09/07 04:46:52;;;;;;;8.05;7.35;;;;;;;-141.48;100.00;69781.59;5205526;28;20238;-80
2022/09/07 04:49:23;;;;;;;7.32;6.72;;;;;;;-141.48;100.00;69781.59;5226125;28;20027;-80
2022/09/07 04:51:53;;;;;;;6.93;6.43;;;;;;;-141.48;100.00;69781.59;5226290;28;20475;-81
2022/09/07 04:54:25;;;;;;;6.50;6.00;;;;;;;-141.48;100.00;69781.59;5224354;28;20050;-81
2022/09/07 04:56:55;;;;;;;10.05;6.57;;;;;;;-141.48;100.00;69781.59;5225483;28;20094;-81
2022/09/07 04:59:26;;;;;;;7.28;6.88;;;;;;;-141.48;100.00;69781.59;5224664;28;20024;-81
2022/09/07 05:01:56;;;;;;;6.45;6.00;;;;;;;-141.48;100.00;69781.59;5226107;28;20479;-82
2022/09/07 05:04:26;;;;;;;7.18;6.68;;;;;;;-141.48;100.00;69781.59;5224908;28;20107;-80
2022/09/07 05:06:57;;;;;;;9.98;6.13;;;;;;;-141.48;100.00;69781.59;5226424;28;20096;-81
2022/09/07 05:09:27;;;;;;;8.25;6.80;;;;;;;-141.48;100.00;69781.59;5225530;28;20047;-80
2022/09/07 05:11:57;;;;;;;11.02;8.30;;;;;;;-141.48;100.00;69781.59;5224595;28;20064;-80
2022/09/07 05:14:28;;;;;;;7.50;6.80;;;;;;;-141.48;100.00;69781.59;5224597;28;20095;-80
2022/09/07 05:16:58;;;;;;;6.78;6.18;;;;;;;-141.48;100.00;69781.59;5225746;28;20086;-80
2022/09/07 05:19:29;;;;;;;8.68;8.15;;;;;;;-141.48;100.00;69781.59;5224861;28;20478;-80
2022/09/07 05:21:59;;;;;;;8.95;7.93;;;;;;;-141.48;100.00;69781.59;5225100;28;20024;-80
2022/09/07 05:24:30;;;;;;;10.15;9.35;;;;;;;-141.48;100.00;69781.59;5224990;28;20115;-80
2022/09/07 05:27:01;;;;;;;10.48;7.53;;;;;;;-141.48;100.00;69781.59;5225342;28;20051;-80
2022/09/07 05:29:32;;;;;;;8.48;7.68;;;;;;;-141.48;100.00;69781.59;5222802;28;20387;-80
2022/09/07 05:32:02;;;;;;;8.40;7.78;;;;;;;-141.48;100.00;69781.59;5224688;28;20048;-80
2022/09/07 05:34:33;;;;;;;13.15;8.00;;;;;;;-141.48;100.00;69781.59;5224687;28;20458;-80
2022/09/07 05:37:03;;;;;;;9.85;8.15;;;;;;;-141.48;100.00;69781.59;5225122;28;20108;-80
2022/09/07 05:39:33;;;;;;;9.82;9.05;;;;;;;-141.48;100.00;69781.59;5224384;28;20588;-79
2022/09/07 05:42:04;;;;;;;12.90;10.32;;;;;;;-141.48;100.00;69781.59;5223361;28;20033;-79
2022/09/07 05:44:35;;;;;;;12.73;10.07;;;;;;;-141.48;100.00;69781.59;5221131;28;20126;-79
2022/09/07 05:47:06;;;;;;;11.52;9.80;;;;;;;-141.48;100.00;69781.59;5205856;28;20021;-79
2022/09/07 05:49:36;;;;;;;12.63;11.45;;;;;;;-141.48;100.00;69781.59;5224575;28;20028;-79
2022/09/07 05:52:06;;;;;;;13.45;12.40;;;;;;;-141.48;100.00;69781.59;5224993;28;20056;-79
2022/09/07 05:54:37;;;;;;;14.50;13.38;;;;;;;-141.48;100.00;69781.59;5224556;28;20025;-80
2022/09/07 05:57:10;;;;;;;14.02;12.88;;;;;;;-141.48;100.00;69781.59;5225413;28;20033;-79
2022/09/07 05:59:40;;;;;;;19.63;13.85;;;;;;;-141.48;100.00;69781.59;5224264;28;20052;-79
2022/09/07 06:02:13;;;;;;;16.25;14.85;;;;;;;-141.48;100.00;69781.59;5224248;28;20166;-79
2022/09/07 06:04:44;;;;;;;18.08;14.13;;;;;;;-141.48;100.00;69781.59;5260895;22;20123;-66
2022/09/07 06:07:14;;;;;;;17.52;15.95;;;;;;;-141.48;100.00;69781.59;5247200;28;20132;-64
2022/09/07 06:09:45;;;;;;;14.00;12.70;;;;;;;-141.48;100.00;69781.59;5247628;28;20017;-67
2022/09/07 06:12:15;;;;;;;17.58;16.17;;;;;;;-141.48;100.00;69781.59;5247982;28;20047;-64
2022/09/07 06:14:45;;;;;;;18.60;17.00;;;;;;;-141.48;100.00;69781.59;5247461;28;20115;-64
2022/09/07 06:17:16;;;;;;;17.48;16.05;;;;;;;-141.48;100.00;69781.59;5246677;28;20559;-63
2022/09/07 06:19:46;;;;;;;19.75;17.80;;;;;;;-141.48;100.00;69781.59;5247459;28;20056;-66
2022/09/07 06:22:17;;;;;;;18.77;17.17;;;;;;;-141.48;100.00;69781.59;5247885;28;20058;-66
2022/09/07 06:24:47;;;;;;;19.55;17.92;;;;;;;-141.48;100.00;69781.59;5246957;28;20075;-63
2022/09/07 06:27:18;;;;;;;17.38;15.70;;;;;;;-141.48;100.00;69781.59;5247533;28;20031;-64
2022/09/07 06:29:48;;;;;;;18.00;16.60;;;;;;;-141.48;100.00;69781.59;5247757;28;20020;-64
2022/09/07 06:32:18;;;;;;;22.30;18.65;;;;;;;-141.48;100.00;69781.59;5247557;28;20518;-65
2022/09/07 06:34:49;;;;;;;18.90;17.13;;;;;;;-141.48;100.00;69781.59;5247327;28;20070;-65
2022/09/07 06:37:19;;;;;;;18.27;16.55;;;;;;;-141.48;100.00;69781.59;5246417;28;20020;-64
2022/09/07 06:39:50;;;;;;;23.73;16.20;;;;;;;-141.48;100.00;69781.59;5245278;28;20012;-65
2022/09/07 06:42:20;;;;;;;23.38;21.23;;;;;;;-141.48;100.00;69781.59;5246035;28;20036;-65
2022/09/07 06:44:50;;;;;;;21.45;19.55;;;;;;;-141.48;100.00;69781.59;5247122;28;20020;-64
2022/09/07 06:47:21;;;;;;;22.13;19.88;;;;;;;-141.48;100.00;69781.59;5247353;28;20063;-64
2022/09/07 06:49:51;;;;;;;22.50;20.50;;;;;;;-141.48;100.00;69781.59;5247584;28;20024;-64
2022/09/07 06:52:22;;;;;;;24.67;22.23;;;;;;;-141.48;100.00;69781.59;5247289;28;20036;-64
2022/09/07 06:54:52;;;;;;;19.98;18.42;;;;;;;-141.48;100.00;69781.59;5246553;28;20029;-70
2022/09/07 06:57:22;;;;;;;21.10;19.15;;;;;;;-141.48;100.00;69781.59;5245162;28;20430;-64
2022/09/07 06:59:53;;;;;;;20.80;19.15;;;;;;;-141.48;100.00;69781.59;5247180;28;20025;-65
2022/09/07 07:02:23;;;;;;;23.60;21.35;;;;;;;-141.48;100.00;69781.59;5243453;28;20020;-63
2022/09/07 07:04:54;;;;;;;21.38;19.67;;;;;;;-141.48;100.00;69781.59;5233655;28;20025;-65
2022/09/07 07:07:24;;;;;;;19.95;18.45;;;;;;;-141.48;100.00;69781.59;5225379;28;20025;-65
2022/09/07 07:09:55;;;;;;;23.05;20.92;;;;;;;-141.48;100.00;69781.59;5225694;28;20461;-64
2022/09/07 07:12:27;;;;;;;20.83;19.10;;;;;;;-141.48;100.00;69781.59;5226019;28;20219;-65
2022/09/07 07:14:59;;;;;;;22.73;20.70;;;;;;;-141.48;100.00;69781.59;5223896;28;20116;-65
2022/09/07 07:17:29;;;;;;;19.65;17.60;;;;;;;-141.48;100.00;69781.59;5224882;28;20039;-64
2022/09/07 07:19:59;;;;;;;21.50;19.80;;;;;;;-141.48;100.00;69781.59;5225448;28;20013;-64
2022/09/07 07:22:30;;;;;;;20.65;18.60;;;;;;;-141.48;100.00;69781.59;5225544;28;20037;-64
2022/09/07 07:25:00;;;;;;;20.30;18.70;;;;;;;-141.48;100.00;69781.59;5224830;28;20017;-64
2022/09/07 07:27:31;;;;;;;19.60;17.90;;;;;;;-141.48;100.00;69781.59;5225814;28;20039;-63
2022/09/07 07:30:01;;;;;;;17.23;15.88;;;;;;;-141.48;100.00;69781.59;5225846;28;20024;-64
2022/09/07 07:32:32;;;;;;;18.48;16.77;;;;;;;-141.48;100.00;69781.59;5225153;28;20082;-64
2022/09/07 07:35:02;;;;;;;17.33;15.88;;;;;;;-141.48;100.00;69781.59;5224463;28;20024;-63
2022/09/07 07:37:33;;;;;;;20.38;18.33;;;;;;;-141.48;100.00;69781.59;5225649;28;20029;-64
2022/09/07 07:40:06;;;;;;;16.90;15.40;;;;;;;-141.48;100.00;69781.59;5224055;28;20021;-63
2022/09/07 07:42:38;;;;;;;15.52;14.13;;;;;;;-141.48;100.00;69781.59;5225482;28;20067;-63
2022/09/07 07:45:10;;;;;;;16.67;15.20;;;;;;;-141.48;100.00;69781.59;5224707;28;20028;-63
2022/09/07 07:47:40;;;;;;;15.90;14.48;;;;;;;-141.48;100.00;69781.59;5222741;28;20024;-64
2022/09/07 07:50:11;;;;;;;15.70;14.25;;;;;;;-141.48;100.00;69781.59;5225047;28;20028;-64
2022/09/07 07:52:41;;;;;;;15.48;13.95;;;;;;;-141.48;100.00;69781.59;5223765;28;20029;-64
2022/09/07 07:55:12;;;;;;;18.25;12.70;;;;;;;-141.48;100.00;69781.59;5224399;28;20463;-64
2022/09/07 07:57:42;;;;;;;15.68;14.23;;;;;;;-141.48;100.00;69781.59;5224912;28;20028;-64
2022/09/07 08:00:13;;;;;;;13.05;11.90;;;;;;;-141.48;100.00;69781.59;5225237;28;20020;-63
2022/09/07 08:02:43;;;;;;;14.30;13.13;;;;;;;-141.48;100.00;69781.59;5224959;28;20035;-64
2022/09/07 08:05:15;;;;;;;15.32;14.05;;;;;;;-141.48;100.00;69781.59;5210823;28;20124;-64
2022/09/07 08:07:46;;;;;;;13.48;11.50;;;;;;;-141.48;100.00;69781.59;5223684;28;20031;-64
2022/09/07 08:10:17;;;;;;;12.63;11.30;;;;;;;-141.48;100.00;69781.59;5223342;28;20021;-65
2022/09/07 08:13:00;;;;;;;12.82;11.82;;;;;;;20.59;100.00;101272.72;5304947;27;20111;-64
2022/09/07 08:15:30;;;;;;;13.73;12.52;;;;;;;20.73;100.00;101271.53;5304277;28;20089;-63
2022/09/07 08:18:01;;;;;;;13.43;9.55;;;;;;;20.86;100.00;101267.88;5304959;28;20043;-66
2022/09/07 08:20:31;;;;;;;12.52;10.95;;;;;;;20.99;100.00;101277.16;5304574;27;20037;-64
2022/09/07 08:23:01;;;;;;;10.60;9.45;;;;;;;21.11;100.00;101262.81;5304867;27;20019;-63
2022/09/07 08:25:35;;;;;;;11.30;10.23;;;;;;;21.20;100.00;101263.69;5304335;27;20069;-63
2022/09/07 08:28:05;;;;;;;11.40;10.18;;;;;;;21.24;100.00;101270.19;5304397;27;20023;-64
2022/09/07 08:30:38;;;;;;;8.50;7.53;;;;;;;21.20;100.00;101260.94;5304437;27;20026;-64
2022/09/07 08:33:09;;;;;;;11.05;8.63;;;;;;;21.39;100.00;101269.75;5304713;27;20028;-64
2022/09/07 08:35:39;;;;;;;9.80;8.77;;;;;;;21.61;100.00;101277.09;5304231;27;20502;-64
2022/09/07 08:38:10;;;;;;;6.85;6.00;;;;;;;21.94;100.00;101268.41;5304427;27;20364;-64
2022/09/07 08:40:40;;;;;;;6.03;5.60;;;;;;;22.09;100.00;101259.69;5304697;27;20394;-65
2022/09/07 08:43:29;;;;;;;11.52;6.80;;;;;;;22.28;100.00;101273.91;5285383;28;20155;-67
2022/09/07 08:46:24;;;;;;;8.55;7.85;;;;;;;22.37;100.00;101266.47;5304521;27;20372;-64
2022/09/07 08:48:57;;;;;;;6.97;6.40;;;;;;;22.42;100.00;101246.25;5304879;27;20058;-64
2022/09/07 08:51:52;;;;;;;6.53;6.03;;;;;;;22.65;100.00;101257.84;5303200;28;20057;-65
2022/09/07 08:54:22;;;;;;;6.05;5.63;;;;;;;22.73;100.00;101263.34;5304194;27;20016;-65
2022/09/07 08:56:56;;;;;;;9.00;5.93;;;;;;;22.77;100.00;101260.75;5304238;27;20050;-64
2022/09/07 08:59:56;;;;;;;7.72;6.75;;;;;;;22.88;100.00;101271.09;5304816;27;20110;-64
2022/09/07 09:02:27;;;;;;;6.45;5.95;;;;;;;22.95;100.00;101265.06;5303726;28;20023;-63
2022/09/07 09:04:58;;;;;;;7.63;7.07;;;;;;;23.19;100.00;101276.31;5304173;27;20047;-64
2022/09/07 09:07:48;;;;;;;6.43;5.93;;;;;;;23.31;100.00;101248.06;5304248;27;20077;-63
2022/09/07 09:10:39;;;;;;;7.60;6.03;;;;;;;23.55;100.00;101255.75;5304495;27;20101;-65
2022/09/07 09:13:18;;;;;;;5.95;5.38;;;;;;;23.43;100.00;101258.38;5304928;27;20035;-64
2022/09/07 09:15:50;;;;;;;6.43;5.32;;;;;;;23.16;100.00;101267.91;5304304;27;20143;-62
2022/09/07 09:18:53;;;;;;;6.60;6.13;;;;;;;22.80;100.00;101262.88;5304590;27;20495;-63
2022/09/07 09:21:25;;;;;;;8.43;4.15;;;;;;;22.95;100.00;101264.28;5285384;28;20023;-63
2022/09/07 09:24:04;;;;;;;10.38;3.60;;;;;;;22.97;100.00;101259.25;5292271;27;20072;-64
2022/09/07 09:26:35;;;;;;;10.40;4.53;;;;;;;23.25;100.00;101263.16;5289662;28;20027;-64
2022/09/07 09:29:18;;;;;;;3.22;3.13;;;;;;;23.64;100.00;101255.69;5287620;28;20299;-63
2022/09/07 09:31:48;;;;;;;2.53;2.33;;;;;;;24.04;100.00;101267.88;5288916;28;20027;-63
2022/09/07 09:34:19;;;;;;;2.67;2.58;;;;;;;24.35;100.00;101258.38;5289361;28;20030;-63
2022/09/07 09:36:53;;;;;;;5.38;3.67;;;;;;;24.44;100.00;101272.91;5288475;28;20028;-63
2022/09/07 09:39:35;;;;;;;4.57;3.35;;;;;;;24.53;100.00;101273.66;5288648;28;20047;-62
2022/09/07 09:42:22;;;;;;;5.97;2.75;;;;;;;24.45;100.00;101266.25;5289986;28;20054;-64
2022/09/07 09:44:52;;;;;;;4.00;3.70;;;;;;;24.28;100.00;101278.25;5289451;28;20023;-62
2022/09/07 09:47:31;;;;;;;2.85;2.75;;;;;;;24.25;100.00;101267.09;5289649;28;20115;-63
2022/09/07 09:50:16;;;;;;;8.50;3.97;;;;;;;24.32;100.00;101268.16;5287987;28;20039;-63
2022/09/07 09:52:47;;;;;;;2.83;2.60;;;;;;;24.60;100.00;101262.03;5289760;28;20016;-63
2022/09/07 09:55:25;;;;;;;13.57;4.18;;;;;;;24.71;100.00;101264.03;5288785;28;20031;-63
2022/09/07 09:58:01;;;;;;;3.28;3.00;;;;;;;24.76;100.00;101258.28;5289337;28;20016;-62
2022/09/07 10:00:33;;;;;;;3.42;3.10;;;;;;;24.68;100.00;101248.13;5289153;28;20045;-62
2022/09/07 10:03:12;;;;;;;6.00;3.78;;;;;;;24.42;100.00;101261.41;5289300;28;20023;-62
2022/09/07 10:05:45;;;;;;;7.32;3.92;;;;;;;23.87;100.00;101262.50;5290295;28;20039;-64
2022/09/07 10:08:21;;;;;;;2.67;2.38;;;;;;;23.55;100.00;101261.25;5287637;28;20455;-62
2022/09/07 10:10:54;;;;;;;3.00;2.80;;;;;;;23.36;100.00;101261.66;5288536;28;20031;-62
2022/09/07 10:13:34;;;;;;;4.35;3.20;;;;;;;23.45;100.00;101254.13;5288704;28;20475;-62
2022/09/07 10:16:07;;;;;;;4.13;3.83;;;;;;;23.78;100.00;101256.22;5289103;28;20481;-62
2022/09/07 10:18:52;;;;;;;4.32;3.30;;;;;;;24.11;100.00;101248.81;5288913;28;20027;-62
2022/09/07 10:21:30;;;;;;;3.67;3.00;;;;;;;24.51;100.00;101237.28;5289213;28;20015;-63
2022/09/07 10:24:04;;;;;;;4.20;2.83;;;;;;;25.06;100.00;101242.34;5288820;28;20030;-63
2022/09/07 10:26:36;;;;;;;4.57;3.75;;;;;;;25.19;100.00;101246.72;5289453;28;20027;-63
2022/09/07 10:29:34;;;;;;;4.50;2.58;;;;;;;24.92;100.00;101239.06;5289046;28;20027;-62
2022/09/07 10:32:37;;;;;;;3.25;2.25;;;;;;;24.62;100.00;101241.22;5289015;28;20165;-63
2022/09/07 10:35:25;;;;;;;10.15;4.97;;;;;;;24.26;100.00;101236.38;5287105;28;20035;-63
2022/09/07 10:38:18;;;;;;;3.63;3.22;;;;;;;23.93;100.00;101239.09;5288521;28;20455;-62
2022/09/07 10:40:48;;;;;;;4.85;4.47;;;;;;;23.94;100.00;101237.94;5288702;28;20023;-62
2022/09/07 10:43:24;;;;;;;3.13;2.92;;;;;;;24.01;100.00;101235.44;5288881;28;20183;-62
2022/09/07 10:46:23;;;;;;;3.63;3.17;;;;;;;24.17;100.00;101230.94;5288574;28;20092;-62
2022/09/07 10:49:09;;;;;;;4.07;3.78;;;;;;;24.33;100.00;101230.31;5288166;28;20027;-62
2022/09/07 10:51:55;;;;;;;2.70;2.50;;;;;;;24.59;100.00;101228.09;5286835;28;20024;-63
2022/09/07 10:54:42;;;;;;;3.35;3.25;;;;;;;24.94;100.00;101208.34;5286953;28;20027;-62
2022/09/07 10:57:30;;;;;;;5.57;2.92;;;;;;;25.12;100.00;101218.06;5287181;28;20036;-63
2022/09/07 11:00:11;;;;;;;2.72;2.55;;;;;;;25.19;100.00;101212.75;5282188;28;20030;-62
2022/09/07 11:03:28;;;;;;;4.95;2.83;;;;;;;24.88;100.00;101214.09;5241421;28;20747;-62
2022/09/07 11:06:12;;;;;;;2.95;2.75;;;;;;;24.57;100.00;101209.09;5221051;28;20238;-62
2022/09/07 11:09:23;;;;;;;4.57;2.75;;;;;;;24.32;100.00;101214.91;5219721;28;20021;-62
2022/09/07 11:12:13;;;;;;;4.93;2.65;;;;;;;24.14;100.00;101225.28;5220830;28;20028;-62
2022/09/07 11:14:51;;;;;;;2.92;2.42;;;;;;;24.15;100.00;101219.41;5219268;28;20025;-62
2022/09/07 11:17:26;;;;;;;4.10;2.47;;;;;;;24.18;100.00;101201.38;5219115;28;20029;-62
2022/09/07 11:20:29;;;;;;;2.13;2.03;;;;;;;23.98;100.00;101211.28;5235002;28;20440;-65
2022/09/07 11:23:35;;;;;;;10.88;2.67;;;;;;;23.76;100.00;101203.34;5241259;28;20032;-62
2022/09/07 11:26:33;;;;;;;6.03;2.05;;;;;;;23.78;100.00;101201.88;5239815;28;20086;-62
2022/09/07 11:29:19;;;;;;;12.13;3.80;;;;;;;23.89;100.00;101207.81;5241263;28;20024;-63
2022/09/07 11:31:54;;;;;;;2.85;2.65;;;;;;;23.94;100.00;101191.06;5240802;28;20700;-63
2022/09/07 11:34:34;;;;;;;2.95;2.75;;;;;;;24.06;100.00;101209.59;5240301;28;20071;-64
2022/09/07 11:37:12;;;;;;;2.65;2.40;;;;;;;24.29;100.00;101201.78;5240996;28;20158;-64
2022/09/07 11:39:49;;;;;;;2.03;1.98;;;;;;;24.55;100.00;101194.00;5241081;28;20500;-64
2022/09/07 11:42:30;;;;;;;3.38;3.17;;;;;;;24.73;100.00;101184.38;5239388;28;20427;-64
2022/09/07 11:45:18;;;;;;;2.63;2.47;;;;;;;24.95;100.00;101182.31;5238922;28;20029;-64
2022/09/07 11:48:09;;;;;;;5.95;2.60;;;;;;;25.31;99.95;101187.88;5240597;28;20028;-64